createdAt,value
2023-05-03T00:01:21.598Z,99332.03
2023-05-03T00:03:54.157Z,99325.34
2023-05-03T00:06:23.232Z,99333.47
2023-05-03T00:08:52.211Z,99328.28
2023-05-03T00:11:20.659Z,99325.38
2023-05-03T00:13:49.326Z,99335.06
2023-05-03T00:16:17.798Z,99337.06
2023-05-03T00:18:47.756Z,99335.47
2023-05-03T00:21:17.375Z,99350.75
2023-05-03T00:23:45.829Z,99352.72
2023-05-03T00:26:14.236Z,99357.50
2023-05-03T00:28:43.376Z,99357.44
2023-05-03T00:31:12.641Z,99366.56
2023-05-03T00:33:41.797Z,99376.97
2023-05-03T00:36:15.273Z,99384.03
2023-05-03T00:38:44.590Z,99386.00
2023-05-03T00:41:14.164Z,99389.50
2023-05-03T00:43:42.607Z,99389.44
2023-05-03T00:46:17.422Z,99394.22
2023-05-03T00:48:50.874Z,99397.16
2023-05-03T00:51:22.230Z,99409.88
2023-05-03T00:53:51.074Z,99420.53
2023-05-03T00:56:24.706Z,99414.44
2023-05-03T00:58:53.844Z,99419.91
2023-05-03T01:01:23.062Z,99421.44
2023-05-03T01:03:51.801Z,99426.34
2023-05-03T01:06:23.519Z,99424.38
2023-05-03T01:09:04.561Z,99430.34
2023-05-03T01:11:43.584Z,99430.69
2023-05-03T01:14:46.409Z,99437.94
2023-05-03T01:17:16.497Z,99441.44
2023-05-03T01:19:49.944Z,99444.34
2023-05-03T01:22:39.178Z,99440.88
2023-05-03T01:25:10.214Z,99450.19
2023-05-03T01:27:39.986Z,99448.75
2023-05-03T01:30:13.838Z,99457.13
2023-05-03T01:32:48.238Z,99459.28
2023-05-03T01:35:22.143Z,99471.22
2023-05-03T01:37:52.395Z,99472.59
2023-05-03T01:40:24.252Z,99481.00
2023-05-03T01:42:56.259Z,99476.75
2023-05-03T01:45:24.876Z,99483.78
2023-05-03T01:47:53.386Z,99492.91
2023-05-03T01:50:21.901Z,99495.59
2023-05-03T01:52:52.341Z,99498.28
2023-05-03T01:55:20.830Z,99497.59
2023-05-03T01:57:49.292Z,99500.50
2023-05-03T02:00:17.873Z,99492.88
2023-05-03T02:02:46.585Z,99504.06
2023-05-03T02:05:15.205Z,99492.81
2023-05-03T02:07:43.658Z,99499.84
2023-05-03T02:10:15.889Z,99494.03
2023-05-03T02:12:45.129Z,99496.38
2023-05-03T02:15:14.972Z,99496.78
2023-05-03T02:17:45.779Z,99496.63
2023-05-03T02:20:14.758Z,99493.63
2023-05-03T02:22:43.689Z,99493.69
2023-05-03T02:25:12.221Z,99490.53
2023-05-03T02:27:41.586Z,99485.06
2023-05-03T02:30:10.408Z,99482.63
2023-05-03T02:32:38.886Z,99488.91
2023-05-03T02:35:07.890Z,99488.72
2023-05-03T02:37:36.334Z,99494.22
2023-05-03T02:40:06.829Z,99492.78
2023-05-03T02:42:35.261Z,99492.06
2023-05-03T02:45:04.499Z,99494.72
2023-05-03T02:47:33.038Z,99491.75
2023-05-03T02:50:01.967Z,99484.03
2023-05-03T02:52:30.698Z,99493.13
2023-05-03T02:54:59.235Z,99493.53
2023-05-03T02:57:28.291Z,99490.13
2023-05-03T02:59:56.998Z,99484.84
2023-05-03T03:02:25.575Z,99481.81
2023-05-03T03:04:54.354Z,99485.06
2023-05-03T03:07:22.869Z,99479.97
2023-05-03T03:09:51.456Z,99470.72
2023-05-03T03:12:19.983Z,99475.66
2023-05-03T03:14:48.413Z,99474.94
2023-05-03T03:17:16.879Z,99476.28
2023-05-03T03:19:45.320Z,99471.34
2023-05-03T03:22:13.788Z,99465.28
2023-05-03T03:24:42.248Z,99462.84
2023-05-03T03:27:10.695Z,99446.94
2023-05-03T03:29:39.161Z,99448.09
2023-05-03T03:32:08.317Z,99436.72
2023-05-03T03:34:37.322Z,99442.22
2023-05-03T03:37:06.456Z,99442.22
2023-05-03T03:39:34.865Z,99430.84
2023-05-03T03:42:03.993Z,99431.00
2023-05-03T03:44:32.440Z,99425.47
2023-05-03T03:47:00.895Z,99416.38
2023-05-03T03:49:29.467Z,99415.81
2023-05-03T03:51:58.273Z,99411.41
2023-05-03T03:54:26.792Z,99398.53
2023-05-03T03:56:55.337Z,99395.06
2023-05-03T03:59:23.790Z,99391.41
2023-05-03T04:01:52.247Z,99389.28
2023-05-03T04:04:20.814Z,99388.09
2023-05-03T04:06:49.443Z,99390.34
2023-05-03T04:09:18.673Z,99386.88
2023-05-03T04:11:47.356Z,99385.31
2023-05-03T04:14:15.820Z,99391.13
2023-05-03T04:16:44.348Z,99389.31
2023-05-03T04:19:13.252Z,99381.25
2023-05-03T04:21:41.807Z,99376.19
2023-05-03T04:24:10.916Z,99354.06
2023-05-03T04:26:39.328Z,99355.16
2023-05-03T04:29:08.467Z,99351.16
2023-05-03T04:31:37.112Z,99348.53
2023-05-03T04:34:05.557Z,99343.09
2023-05-03T04:36:34.043Z,99343.00
2023-05-03T04:39:02.494Z,99329.41
2023-05-03T04:41:30.937Z,99326.31
2023-05-03T04:43:59.385Z,99322.84
2023-05-03T04:46:27.839Z,99313.78
2023-05-03T04:48:56.266Z,99318.97
2023-05-03T04:51:25.312Z,99309.53
2023-05-03T04:53:53.703Z,99296.84
2023-05-03T04:56:27.155Z,99286.13
2023-05-03T04:58:55.824Z,99286.00
2023-05-03T05:01:29.072Z,99282.28
2023-05-03T05:03:57.728Z,99274.25
2023-05-03T05:06:26.735Z,99269.66
2023-05-03T05:08:55.170Z,99265.16
2023-05-03T05:11:24.954Z,99259.94
2023-05-03T05:13:53.787Z,99249.00
2023-05-03T05:16:23.164Z,99243.78
2023-05-03T05:18:51.691Z,99240.81
2023-05-03T05:21:20.119Z,99241.47
2023-05-03T05:23:48.708Z,99230.50
2023-05-03T05:26:17.289Z,99230.81
2023-05-03T05:28:45.753Z,99223.34
2023-05-03T05:31:14.477Z,99223.19
2023-05-03T05:33:43.356Z,99222.16
2023-05-03T05:36:12.085Z,99218.84
2023-05-03T05:38:41.294Z,99206.38
2023-05-03T05:41:09.821Z,99204.59
2023-05-03T05:43:38.270Z,99190.19
2023-05-03T05:46:06.861Z,99181.94
2023-05-03T05:48:35.324Z,99174.25
2023-05-03T05:51:03.909Z,99158.91
2023-05-03T05:53:32.320Z,99160.56
2023-05-03T05:56:01.013Z,99159.06
2023-05-03T05:58:29.499Z,99158.91
2023-05-03T06:01:04.808Z,99145.81
2023-05-03T06:03:34.343Z,99126.09
2023-05-03T06:06:02.876Z,99123.59
2023-05-03T06:08:31.478Z,99120.13
2023-05-03T06:11:00.134Z,99111.69
2023-05-03T06:13:28.595Z,99104.34
2023-05-03T06:15:57.298Z,99094.84
2023-05-03T06:18:25.740Z,99104.47
2023-05-03T06:20:54.209Z,99091.88
2023-05-03T06:23:22.728Z,99094.75
2023-05-03T06:25:51.152Z,99092.66
2023-05-03T06:28:19.757Z,99083.94
2023-05-03T06:30:51.983Z,99071.63
2023-05-03T06:33:20.485Z,99071.03
2023-05-03T06:35:48.952Z,99068.31
2023-05-03T06:38:17.383Z,99053.75
2023-05-03T06:40:49.562Z,99045.16
2023-05-03T06:43:18.021Z,99034.34
2023-05-03T06:45:46.741Z,99036.16
2023-05-03T06:48:15.355Z,99028.16
2023-05-03T06:50:43.893Z,99012.94
2023-05-03T06:53:12.335Z,99009.94
2023-05-03T06:55:40.760Z,99006.28
2023-05-03T06:58:13.081Z,98991.81
2023-05-03T07:00:42.137Z,98981.47
2023-05-03T07:03:10.593Z,98978.88
2023-05-03T07:05:39.129Z,98978.56
2023-05-03T07:08:07.596Z,98974.47
2023-05-03T07:10:36.094Z,98973.88
2023-05-03T07:13:04.590Z,98962.28
2023-05-03T07:15:33.228Z,98962.78
2023-05-03T07:18:01.818Z,98956.16
2023-05-03T07:20:30.334Z,98957.38
2023-05-03T07:22:59.340Z,98950.63
2023-05-03T07:25:28.505Z,98948.69
2023-05-03T07:27:57.068Z,98936.50
2023-05-03T07:30:25.675Z,98949.44
2023-05-03T07:32:54.291Z,98941.75
2023-05-03T07:35:24.195Z,98929.09
2023-05-03T07:37:52.617Z,98920.66
2023-05-03T07:40:21.052Z,98922.75
2023-05-03T07:42:49.568Z,98916.91
2023-05-03T07:45:18.099Z,98911.94
2023-05-03T07:47:46.593Z,98911.06
2023-05-03T07:50:15.238Z,98916.78
2023-05-03T07:52:44.409Z,98914.53
2023-05-03T07:55:12.952Z,98914.06
2023-05-03T07:57:41.377Z,98921.75
2023-05-03T08:00:11.948Z,98921.00
2023-05-03T08:02:40.880Z,98920.13
2023-05-03T08:05:10.874Z,98909.16
2023-05-03T08:07:39.521Z,98897.31
2023-05-03T08:10:08.555Z,98888.06
2023-05-03T08:12:38.068Z,98887.22
2023-05-03T08:15:08.006Z,98883.94
2023-05-03T08:17:44.731Z,98870.00
2023-05-03T08:20:14.437Z,98873.22
2023-05-03T08:22:43.460Z,98867.53
2023-05-03T08:25:13.197Z,98871.44
2023-05-03T08:27:41.646Z,98868.88
2023-05-03T08:30:10.695Z,98867.38
2023-05-03T08:32:39.252Z,98868.16
2023-05-03T08:35:08.287Z,98857.78
2023-05-03T08:37:41.533Z,98854.50
2023-05-03T08:40:12.978Z,98845.97
2023-05-03T08:42:43.453Z,98845.69
2023-05-03T08:45:15.171Z,98848.69
2023-05-03T08:47:46.084Z,98841.47
2023-05-03T08:50:16.469Z,98846.44
2023-05-03T08:52:45.637Z,98852.13
2023-05-03T08:55:14.185Z,98850.94
2023-05-03T08:57:42.653Z,98849.13
2023-05-03T09:00:12.219Z,98845.06
2023-05-03T09:02:41.289Z,98833.19
2023-05-03T09:05:18.797Z,98826.13
2023-05-03T09:08:08.418Z,98826.88
2023-05-03T09:10:40.863Z,98827.94
2023-05-03T09:13:10.668Z,98833.31
2023-05-03T09:15:39.368Z,98839.16
2023-05-03T09:18:12.608Z,98847.69
2023-05-03T09:20:42.753Z,98844.06
2023-05-03T09:23:11.524Z,98850.94
2023-05-03T09:25:53.458Z,98847.69
2023-05-03T09:28:22.555Z,98837.03
2023-05-03T09:30:51.769Z,98837.56
2023-05-03T09:33:30.816Z,98843.22
2023-05-03T09:36:01.959Z,98846.91
2023-05-03T09:38:35.074Z,98855.88
2023-05-03T09:41:04.336Z,98864.84
2023-05-03T09:43:32.955Z,98869.03
2023-05-03T09:46:15.332Z,98873.03
2023-05-03T09:48:44.408Z,98864.19
2023-05-03T09:51:14.039Z,98867.28
2023-05-03T09:53:45.234Z,98872.34
2023-05-03T09:56:14.137Z,98864.91
2023-05-03T09:58:44.640Z,98863.81
2023-05-03T10:01:15.938Z,98870.16
2023-05-03T10:03:46.035Z,98874.41
2023-05-03T10:06:25.796Z,98864.31
2023-05-03T10:09:02.008Z,98858.88
2023-05-03T10:11:30.445Z,98852.72
2023-05-03T10:13:59.320Z,98849.94
2023-05-03T10:16:40.352Z,98847.34
2023-05-03T10:19:44.741Z,98844.13
2023-05-03T10:22:13.222Z,98835.13
2023-05-03T10:25:02.703Z,98830.28
2023-05-03T10:28:07.765Z,98842.78
2023-05-03T10:30:39.109Z,98840.75
2023-05-03T10:33:19.396Z,98843.84
2023-05-03T10:35:55.563Z,98849.03
2023-05-03T10:38:26.413Z,98847.94
2023-05-03T10:40:58.193Z,98853.97
2023-05-03T10:43:32.810Z,98853.66
2023-05-03T10:46:06.328Z,98856.88
2023-05-03T10:48:36.226Z,98865.94
2023-05-03T10:51:34.009Z,98875.47
2023-05-03T10:54:02.429Z,98875.69
2023-05-03T10:56:31.112Z,98869.50
2023-05-03T10:58:59.779Z,98870.28
2023-05-03T11:01:28.999Z,98866.16
2023-05-03T11:04:11.958Z,98872.66
2023-05-03T11:06:47.002Z,98868.53
2023-05-03T11:09:15.896Z,98868.75
2023-05-03T11:11:44.631Z,98873.09
2023-05-03T11:14:14.783Z,98880.31
2023-05-03T11:16:48.602Z,98881.13
2023-05-03T11:19:17.467Z,98884.88
2023-05-03T11:21:47.774Z,98897.38
2023-05-03T11:24:17.062Z,98898.53
2023-05-03T11:26:45.638Z,98904.59
2023-05-03T11:29:15.016Z,98905.34
2023-05-03T11:31:44.190Z,98896.84
2023-05-03T11:34:14.090Z,98900.25
2023-05-03T11:36:43.742Z,98908.00
2023-05-03T11:39:17.606Z,98915.00
2023-05-03T11:42:03.810Z,98918.97
2023-05-03T11:44:32.395Z,98922.38
2023-05-03T11:47:01.651Z,98925.03
2023-05-03T11:49:30.679Z,98934.84
2023-05-03T11:51:59.396Z,98934.09
2023-05-03T11:54:28.795Z,98936.16
2023-05-03T11:57:02.869Z,98936.00
2023-05-03T11:59:40.443Z,98946.56
2023-05-03T12:02:12.920Z,98938.44
2023-05-03T12:04:46.117Z,98941.09
2023-05-03T12:07:18.440Z,98946.75
2023-05-03T12:10:01.281Z,98941.66
2023-05-03T12:12:41.154Z,98939.56
2023-05-03T12:15:11.727Z,98937.84
2023-05-03T12:17:44.410Z,98937.84
2023-05-03T12:22:58.077Z,98948.06
2023-05-03T12:25:29.071Z,98954.47
2023-05-03T12:28:17.791Z,98947.13
2023-05-03T12:30:48.036Z,98953.19
2023-05-03T12:33:17.520Z,98957.34
2023-05-03T12:35:48.143Z,98966.22
2023-05-03T12:38:18.070Z,98966.22
2023-05-03T12:40:48.336Z,98972.44
2023-05-03T12:43:17.149Z,98973.56
2023-05-03T12:45:51.161Z,98972.06
2023-05-03T12:48:27.016Z,98974.50
2023-05-03T12:51:06.855Z,98978.66
2023-05-03T12:53:47.085Z,98982.06
2023-05-03T12:56:16.893Z,98972.63
2023-05-03T12:59:04.937Z,98975.47
2023-05-03T13:02:22.607Z,98981.50
2023-05-03T13:07:01.096Z,98991.13
2023-05-03T13:09:38.804Z,98999.59
2023-05-03T13:12:22.664Z,99000.88
2023-05-03T13:14:52.790Z,99015.22
2023-05-03T13:17:23.766Z,99019.56
2023-05-03T13:19:53.570Z,99020.28
2023-05-03T13:22:22.090Z,99017.06
2023-05-03T13:24:51.093Z,99018.00
2023-05-03T13:27:20.067Z,99009.69
2023-05-03T13:29:49.511Z,99009.31
2023-05-03T13:32:18.766Z,99011.72
2023-05-03T13:34:47.318Z,99014.16
2023-05-03T13:37:19.470Z,99025.06
2023-05-03T13:39:49.004Z,99026.72
2023-05-03T13:42:17.508Z,99032.75
2023-05-03T13:44:49.038Z,99025.94
2023-05-03T13:47:17.474Z,99032.72
2023-05-03T13:49:45.993Z,99036.66
2023-05-03T13:52:14.512Z,99039.84
2023-05-03T13:54:43.476Z,99043.78
2023-05-03T13:57:12.078Z,99042.06
2023-05-03T13:59:40.492Z,99046.00
2023-05-03T14:02:09.260Z,99051.47
2023-05-03T14:04:37.827Z,99054.84
2023-05-03T14:07:06.444Z,99051.84
2023-05-03T14:09:41.623Z,99060.66
2023-05-03T14:12:10.643Z,99061.03
2023-05-03T14:14:39.110Z,99065.69
2023-05-03T14:17:07.747Z,99066.81
2023-05-03T14:19:37.963Z,99065.09
2023-05-03T14:22:06.745Z,99067.50
2023-05-03T14:24:35.214Z,99070.66
2023-05-03T14:27:04.670Z,99066.13
2023-05-03T14:29:33.165Z,99069.31
2023-05-03T14:32:02.115Z,99078.91
2023-05-03T14:34:30.601Z,99075.84
2023-05-03T14:36:59.036Z,99083.34
2023-05-03T14:39:27.541Z,99078.06
2023-05-03T14:41:56.493Z,99079.91
2023-05-03T14:44:25.307Z,99086.47
2023-05-03T14:46:54.247Z,99086.81
2023-05-03T14:49:23.042Z,99094.53
2023-05-03T14:51:51.608Z,99087.38
2023-05-03T14:54:20.825Z,99090.00
2023-05-03T14:56:49.290Z,99091.09
2023-05-03T14:59:17.727Z,99087.31
2023-05-03T15:01:46.185Z,99099.13
2023-05-03T15:04:14.622Z,99096.09
2023-05-03T15:06:44.188Z,99094.59
2023-05-03T15:09:13.881Z,99084.63
2023-05-03T15:11:42.517Z,99083.09
2023-05-03T15:14:11.341Z,99078.00
2023-05-03T15:16:40.619Z,99077.25
2023-05-03T15:19:09.452Z,99068.03
2023-05-03T15:21:52.909Z,99079.09
2023-05-03T15:24:21.634Z,99080.41
2023-05-03T15:26:50.155Z,99084.53
2023-05-03T15:29:18.661Z,99080.72
2023-05-03T15:31:47.857Z,99076.41
2023-05-03T15:34:16.533Z,99080.31
2023-05-03T15:36:44.996Z,99077.28
2023-05-03T15:39:14.030Z,99093.47
2023-05-03T15:41:42.460Z,99086.88
2023-05-03T15:44:11.014Z,99094.38
2023-05-03T15:46:42.195Z,99091.53
2023-05-03T15:49:12.905Z,99085.16
2023-05-03T15:51:41.397Z,99077.19
2023-05-03T15:54:09.905Z,99081.34
2023-05-03T15:56:38.691Z,99079.59
2023-05-03T15:59:08.450Z,99067.56
2023-05-03T16:01:38.580Z,99063.97
2023-05-03T16:04:08.671Z,99055.31
2023-05-03T16:06:37.124Z,99054.56
2023-05-03T16:09:07.508Z,99060.19
2023-05-03T16:11:36.683Z,99050.78
2023-05-03T16:14:10.244Z,99057.72
2023-05-03T16:16:39.717Z,99047.00
2023-05-03T16:19:09.784Z,99049.59
2023-05-03T16:21:38.211Z,99050.16
2023-05-03T16:24:06.936Z,99048.63
2023-05-03T16:26:37.113Z,99047.69
2023-05-03T16:29:05.812Z,99045.41
2023-05-03T16:31:34.882Z,99043.34
2023-05-03T16:34:03.790Z,99043.34
2023-05-03T16:36:34.176Z,99041.81
2023-05-03T16:39:02.615Z,99038.03
2023-05-03T16:41:32.155Z,99032.16
2023-05-03T16:44:00.576Z,99039.13
2023-05-03T16:46:29.035Z,99037.59
2023-05-03T16:48:57.576Z,99026.09
2023-05-03T16:51:26.056Z,99029.47
2023-05-03T16:53:55.051Z,99030.78
2023-05-03T16:56:24.140Z,99022.88
2023-05-03T16:58:54.038Z,99026.25
2023-05-03T17:01:23.048Z,99021.16
2023-05-03T17:03:51.654Z,99017.56
2023-05-03T17:06:20.747Z,99009.13
2023-05-03T17:08:49.370Z,99003.81
2023-05-03T17:11:17.821Z,99014.88
2023-05-03T17:13:46.246Z,99017.47
2023-05-03T17:16:16.552Z,99022.16
2023-05-03T17:18:45.318Z,99011.97
2023-05-03T17:21:13.789Z,99006.13
2023-05-03T17:23:42.851Z,99004.56
2023-05-03T17:26:13.328Z,99004.38
2023-05-03T17:28:42.494Z,99003.94
2023-05-03T17:31:11.286Z,98993.22
2023-05-03T17:33:40.109Z,98993.75
2023-05-03T17:36:08.854Z,98996.59
2023-05-03T17:38:37.703Z,99002.00
2023-05-03T17:41:08.682Z,99003.53
2023-05-03T17:43:38.539Z,98995.63
2023-05-03T17:46:09.832Z,98999.19
2023-05-03T17:48:48.730Z,99005.38
2023-05-03T17:51:17.255Z,99003.09
2023-05-03T17:53:45.687Z,99002.34
2023-05-03T17:56:16.123Z,98993.13
2023-05-03T17:58:45.300Z,98998.56
2023-05-03T18:01:14.345Z,98996.28
2023-05-03T18:03:43.018Z,99003.25
2023-05-03T18:06:14.342Z,99005.28
2023-05-03T18:08:43.870Z,98986.66
2023-05-03T18:11:12.307Z,98987.41
2023-05-03T18:13:42.291Z,98989.28
2023-05-03T18:16:11.070Z,98991.84
2023-05-03T18:18:39.516Z,98997.50
2023-05-03T18:21:08.388Z,98998.03
2023-05-03T18:23:36.801Z,98994.47
2023-05-03T18:26:05.376Z,98988.06
2023-05-03T18:28:34.106Z,98977.34
2023-05-03T18:31:02.593Z,98979.41
2023-05-03T18:33:31.208Z,98977.13
2023-05-03T18:36:00.169Z,98971.28
2023-05-03T18:38:28.622Z,98978.22
2023-05-03T18:40:57.084Z,98977.47
2023-05-03T18:43:25.569Z,98968.81
2023-05-03T18:45:54.088Z,98963.16
2023-05-03T18:48:22.532Z,98963.72
2023-05-03T18:50:50.935Z,98965.78
2023-05-03T18:53:19.338Z,98965.78
2023-05-03T18:55:47.900Z,98962.00
2023-05-03T18:58:16.714Z,98967.41
2023-05-03T19:00:45.233Z,98972.84
2023-05-03T19:03:13.679Z,98968.50
2023-05-03T19:05:42.139Z,98966.22
2023-05-03T19:08:10.620Z,98957.78
2023-05-03T19:10:39.781Z,98958.53
2023-05-03T19:13:08.521Z,98958.28
2023-05-03T19:15:37.388Z,98965.25
2023-05-03T19:18:05.943Z,98960.88
2023-05-03T19:20:34.382Z,98961.41
2023-05-03T19:23:03.456Z,98966.09
2023-05-03T19:25:32.186Z,98958.19
2023-05-03T19:28:00.625Z,98947.47
2023-05-03T19:30:29.131Z,98945.94
2023-05-03T19:32:57.654Z,98938.25
2023-05-03T19:35:26.131Z,98945.94
2023-05-03T19:37:54.616Z,98941.81
2023-05-03T19:40:23.954Z,98944.66
2023-05-03T19:42:54.433Z,98945.41
2023-05-03T19:45:23.870Z,98942.59
2023-05-03T19:47:52.384Z,98940.53
2023-05-03T19:50:20.912Z,98948.22
2023-05-03T19:52:53.556Z,98941.28
2023-05-03T19:55:22.376Z,98942.59
2023-05-03T19:57:50.831Z,98944.66
2023-05-03T20:00:22.124Z,98952.34
2023-05-03T20:02:50.580Z,98945.94
2023-05-03T20:05:19.109Z,98942.16
2023-05-03T20:07:49.972Z,98951.91
2023-05-03T20:10:18.811Z,98931.97
2023-05-03T20:12:48.242Z,98935.34
2023-05-03T20:15:16.832Z,98940.22
2023-05-03T20:17:45.326Z,98945.84
2023-05-03T20:20:15.533Z,98944.88
2023-05-03T20:22:43.948Z,98942.06
2023-05-03T20:25:12.371Z,98939.25
2023-05-03T20:27:40.852Z,98943.38
2023-05-03T20:30:10.238Z,98936.22
2023-05-03T20:32:40.184Z,98933.97
2023-05-03T20:35:30.785Z,98938.06
2023-05-03T20:37:59.357Z,98935.03
2023-05-03T20:40:28.081Z,98941.22
2023-05-03T20:42:56.486Z,98939.69
2023-05-03T20:45:25.114Z,98937.41
2023-05-03T20:47:53.680Z,98935.13
2023-05-03T20:50:22.354Z,98947.91
2023-05-03T20:52:50.786Z,98946.41
2023-05-03T20:55:19.395Z,98947.16
2023-05-03T20:57:47.924Z,98940.56
2023-05-03T21:00:22.024Z,98944.88
2023-05-03T21:02:54.670Z,98945.44
2023-05-03T21:05:23.566Z,98946.72
2023-05-03T21:07:52.627Z,98943.16
2023-05-03T21:10:21.166Z,98948.56
2023-05-03T21:12:49.591Z,98951.38
2023-05-03T21:15:18.867Z,98948.34
2023-05-03T21:17:47.421Z,98958.66
2023-05-03T21:20:16.005Z,98952.81
2023-05-03T21:22:44.443Z,98955.63
2023-05-03T21:25:12.859Z,98956.16
2023-05-03T21:27:41.307Z,98963.09
2023-05-03T21:30:10.415Z,98965.16
2023-05-03T21:32:38.911Z,98962.88
2023-05-03T21:35:10.295Z,98972.63
2023-05-03T21:37:38.771Z,98961.16
2023-05-03T21:40:08.328Z,98966.56
2023-05-03T21:42:37.136Z,98963.75
2023-05-03T21:45:06.184Z,98965.81
2023-05-03T21:47:34.676Z,98971.94
2023-05-03T21:50:03.448Z,98974.75
2023-05-03T21:52:33.301Z,98982.44
2023-05-03T21:55:01.831Z,98980.16
2023-05-03T21:57:31.905Z,98980.16
2023-05-03T22:00:01.589Z,98983.53
2023-05-03T22:02:30.222Z,98982.53
2023-05-03T22:04:58.783Z,98991.50
2023-05-03T22:07:27.168Z,98995.09
2023-05-03T22:09:55.623Z,98997.13
2023-05-03T22:12:25.054Z,99001.25
2023-05-03T22:14:54.017Z,99002.00
2023-05-03T22:17:22.584Z,99000.50
2023-05-03T22:19:51.652Z,99002.56
2023-05-03T22:22:20.265Z,98998.22
2023-05-03T22:24:48.927Z,99006.66
2023-05-03T22:27:17.359Z,99007.41
2023-05-03T22:29:45.836Z,99006.44
2023-05-03T22:32:14.996Z,99014.34
2023-05-03T22:34:45.385Z,99006.44
2023-05-03T22:37:13.931Z,99016.41
2023-05-03T22:39:42.597Z,99020.53
2023-05-03T22:42:11.027Z,99022.56
2023-05-03T22:44:39.481Z,99020.53
2023-05-03T22:47:07.915Z,99026.69
2023-05-03T22:49:36.379Z,99023.09
2023-05-03T22:52:05.240Z,99032.31
2023-05-03T22:54:33.675Z,99035.88
2023-05-03T22:57:02.248Z,99040.22
2023-05-03T22:59:30.623Z,99053.53
2023-05-03T23:01:59.573Z,99048.88
2023-05-03T23:04:28.015Z,99061.66
2023-05-03T23:06:56.950Z,99062.41
2023-05-03T23:09:25.346Z,99077.47
2023-05-03T23:11:53.984Z,99087.97
2023-05-03T23:14:22.497Z,99082.56
2023-05-03T23:16:50.992Z,99087.66
2023-05-03T23:19:19.457Z,99087.13
2023-05-03T23:21:47.929Z,99098.63
2023-05-03T23:24:16.477Z,99101.69
2023-05-03T23:26:45.293Z,99112.41
2023-05-03T23:29:14.136Z,99109.81
2023-05-03T23:31:43.111Z,99113.38
2023-05-03T23:34:12.000Z,99122.81
2023-05-03T23:36:40.396Z,99128.66
2023-05-03T23:39:08.825Z,99118.38
2023-05-03T23:41:37.248Z,99124.97
2023-05-03T23:44:05.872Z,99123.91
2023-05-03T23:46:34.834Z,99129.22
2023-05-03T23:49:03.323Z,99129.66
2023-05-03T23:51:31.864Z,99131.63
2023-05-03T23:54:00.247Z,99131.53
2023-05-03T23:56:28.616Z,99144.00
2023-05-03T23:58:57.160Z,99138.03
